sensor_id;sensor_type;location;lat;lon;timestamp;P1;durP1;ratioP1;P2;durP2;ratioP2
14754;SDS011;7469;50.906;6.952;2023-09-19T00:00:43;4.83;;;1.93;;
14754;SDS011;7469;50.906;6.952;2023-09-19T00:03:13;6.23;;;1.90;;
14754;SDS011;7469;50.906;6.952;2023-09-19T00:05:43;8.57;;;2.27;;
14754;SDS011;7469;50.906;6.952;2023-09-19T00:08:12;8.53;;;2.37;;
14754;SDS011;7469;50.906;6.952;2023-09-19T00:10:40;7.67;;;1.70;;
14754;SDS011;7469;50.906;6.952;2023-09-19T00:13:09;5.37;;;1.87;;
14754;SDS011;7469;50.906;6.952;2023-09-19T00:15:43;7.03;;;2.20;;
14754;SDS011;7469;50.906;6.952;2023-09-19T00:18:16;8.50;;;2.13;;
14754;SDS011;7469;50.906;6.952;2023-09-19T00:20:45;8.60;;;2.37;;
14754;SDS011;7469;50.906;6.952;2023-09-19T00:23:14;5.07;;;1.90;;
14754;SDS011;7469;50.906;6.952;2023-09-19T00:25:42;4.73;;;1.83;;
14754;SDS011;7469;50.906;6.952;2023-09-19T00:28:11;4.80;;;1.97;;
14754;SDS011;7469;50.906;6.952;2023-09-19T00:30:44;6.13;;;2.60;;
14754;SDS011;7469;50.906;6.952;2023-09-19T00:33:16;6.47;;;2.43;;
14754;SDS011;7469;50.906;6.952;2023-09-19T00:35:48;8.30;;;2.27;;
14754;SDS011;7469;50.906;6.952;2023-09-19T00:38:16;8.87;;;2.07;;
14754;SDS011;7469;50.906;6.952;2023-09-19T00:40:47;6.37;;;2.20;;
14754;SDS011;7469;50.906;6.952;2023-09-19T00:43:16;7.23;;;2.10;;
14754;SDS011;7469;50.906;6.952;2023-09-19T00:45:46;6.73;;;1.70;;
14754;SDS011;7469;50.906;6.952;2023-09-19T00:48:15;7.47;;;2.13;;
14754;SDS011;7469;50.906;6.952;2023-09-19T00:50:45;7.03;;;2.10;;
14754;SDS011;7469;50.906;6.952;2023-09-19T00:53:15;7.17;;;2.33;;
14754;SDS011;7469;50.906;6.952;2023-09-19T00:55:46;4.80;;;1.60;;
14754;SDS011;7469;50.906;6.952;2023-09-19T00:58:16;3.47;;;1.60;;
14754;SDS011;7469;50.906;6.952;2023-09-19T01:00:45;7.87;;;2.07;;
14754;SDS011;7469;50.906;6.952;2023-09-19T01:03:15;7.93;;;2.43;;
14754;SDS011;7469;50.906;6.952;2023-09-19T01:05:44;6.43;;;2.07;;
14754;SDS011;7469;50.906;6.952;2023-09-19T01:08:12;7.13;;;2.53;;
14754;SDS011;7469;50.906;6.952;2023-09-19T01:10:42;7.90;;;2.40;;
14754;SDS011;7469;50.906;6.952;2023-09-19T01:13:21;8.33;;;2.40;;
14754;SDS011;7469;50.906;6.952;2023-09-19T01:15:59;9.30;;;2.60;;
14754;SDS011;7469;50.906;6.952;2023-09-19T01:18:35;7.97;;;2.30;;
14754;SDS011;7469;50.906;6.952;2023-09-19T01:21:11;6.40;;;2.20;;
14754;SDS011;7469;50.906;6.952;2023-09-19T01:23:53;6.97;;;2.00;;
14754;SDS011;7469;50.906;6.952;2023-09-19T01:26:48;7.87;;;2.17;;
14754;SDS011;7469;50.906;6.952;2023-09-19T01:29:41;8.03;;;2.10;;
14754;SDS011;7469;50.906;6.952;2023-09-19T01:32:15;6.43;;;2.03;;
14754;SDS011;7469;50.906;6.952;2023-09-19T01:34:49;6.20;;;1.90;;
14754;SDS011;7469;50.906;6.952;2023-09-19T01:37:19;6.77;;;2.10;;
14754;SDS011;7469;50.906;6.952;2023-09-19T01:39:52;6.07;;;1.77;;
14754;SDS011;7469;50.906;6.952;2023-09-19T01:42:27;7.63;;;2.40;;
14754;SDS011;7469;50.906;6.952;2023-09-19T01:45:03;7.67;;;2.37;;
14754;SDS011;7469;50.906;6.952;2023-09-19T01:47:38;7.40;;;2.30;;
14754;SDS011;7469;50.906;6.952;2023-09-19T01:50:13;7.77;;;2.30;;
14754;SDS011;7469;50.906;6.952;2023-09-19T01:52:48;6.30;;;2.00;;
14754;SDS011;7469;50.906;6.952;2023-09-19T01:55:21;6.83;;;2.63;;
14754;SDS011;7469;50.906;6.952;2023-09-19T01:57:54;7.63;;;2.27;;
14754;SDS011;7469;50.906;6.952;2023-09-19T02:00:31;6.50;;;2.10;;
14754;SDS011;7469;50.906;6.952;2023-09-19T02:03:05;7.67;;;1.83;;
14754;SDS011;7469;50.906;6.952;2023-09-19T02:05:34;9.63;;;2.17;;
14754;SDS011;7469;50.906;6.952;2023-09-19T02:08:02;6.10;;;2.10;;
14754;SDS011;7469;50.906;6.952;2023-09-19T02:10:31;9.97;;;2.40;;
14754;SDS011;7469;50.906;6.952;2023-09-19T02:12:59;9.43;;;2.33;;
14754;SDS011;7469;50.906;6.952;2023-09-19T02:15:30;7.67;;;2.17;;
14754;SDS011;7469;50.906;6.952;2023-09-19T02:18:00;7.07;;;2.00;;
14754;SDS011;7469;50.906;6.952;2023-09-19T02:20:30;7.47;;;2.20;;
14754;SDS011;7469;50.906;6.952;2023-09-19T02:22:59;10.20;;;2.20;;
14754;SDS011;7469;50.906;6.952;2023-09-19T02:25:27;6.00;;;2.20;;
14754;SDS011;7469;50.906;6.952;2023-09-19T02:27:55;7.37;;;2.33;;
14754;SDS011;7469;50.906;6.952;2023-09-19T02:30:24;7.40;;;2.10;;
14754;SDS011;7469;50.906;6.952;2023-09-19T02:32:52;11.43;;;2.73;;
14754;SDS011;7469;50.906;6.952;2023-09-19T02:35:20;7.57;;;2.20;;
14754;SDS011;7469;50.906;6.952;2023-09-19T02:37:50;7.67;;;2.20;;
14754;SDS011;7469;50.906;6.952;2023-09-19T02:40:18;11.93;;;2.50;;
14754;SDS011;7469;50.906;6.952;2023-09-19T02:42:46;7.50;;;2.33;;
14754;SDS011;7469;50.906;6.952;2023-09-19T02:45:15;9.53;;;2.30;;
14754;SDS011;7469;50.906;6.952;2023-09-19T02:47:45;8.37;;;2.53;;
14754;SDS011;7469;50.906;6.952;2023-09-19T02:50:14;9.50;;;2.37;;
14754;SDS011;7469;50.906;6.952;2023-09-19T02:52:43;7.40;;;2.00;;
14754;SDS011;7469;50.906;6.952;2023-09-19T02:55:15;9.43;;;2.47;;
14754;SDS011;7469;50.906;6.952;2023-09-19T02:57:47;9.07;;;2.40;;
14754;SDS011;7469;50.906;6.952;2023-09-19T03:00:17;8.60;;;2.30;;
14754;SDS011;7469;50.906;6.952;2023-09-19T03:02:48;7.23;;;2.40;;
14754;SDS011;7469;50.906;6.952;2023-09-19T03:05:16;7.50;;;2.20;;
14754;SDS011;7469;50.906;6.952;2023-09-19T03:07:45;8.87;;;2.40;;
14754;SDS011;7469;50.906;6.952;2023-09-19T03:10:18;6.07;;;1.97;;
14754;SDS011;7469;50.906;6.952;2023-09-19T03:12:46;13.43;;;2.97;;
14754;SDS011;7469;50.906;6.952;2023-09-19T03:15:15;6.67;;;2.23;;
14754;SDS011;7469;50.906;6.952;2023-09-19T03:17:44;7.93;;;2.50;;
14754;SDS011;7469;50.906;6.952;2023-09-19T03:20:14;8.13;;;2.23;;
14754;SDS011;7469;50.906;6.952;2023-09-19T03:22:44;8.80;;;2.60;;
14754;SDS011;7469;50.906;6.952;2023-09-19T03:25:12;12.40;;;2.70;;
14754;SDS011;7469;50.906;6.952;2023-09-19T03:27:42;17.40;;;3.17;;
14754;SDS011;7469;50.906;6.952;2023-09-19T03:30:10;11.20;;;2.50;;
14754;SDS011;7469;50.906;6.952;2023-09-19T03:32:43;8.10;;;2.40;;
14754;SDS011;7469;50.906;6.952;2023-09-19T03:35:13;6.20;;;2.17;;
14754;SDS011;7469;50.906;6.952;2023-09-19T03:37:41;17.80;;;2.97;;
14754;SDS011;7469;50.906;6.952;2023-09-19T03:40:10;12.33;;;2.77;;
14754;SDS011;7469;50.906;6.952;2023-09-19T03:42:39;11.87;;;3.13;;
14754;SDS011;7469;50.906;6.952;2023-09-19T03:45:08;10.40;;;2.40;;
14754;SDS011;7469;50.906;6.952;2023-09-19T03:47:39;8.17;;;2.40;;
14754;SDS011;7469;50.906;6.952;2023-09-19T03:50:08;8.97;;;2.63;;
14754;SDS011;7469;50.906;6.952;2023-09-19T03:52:37;8.27;;;2.10;;
14754;SDS011;7469;50.906;6.952;2023-09-19T03:55:06;9.60;;;2.37;;
14754;SDS011;7469;50.906;6.952;2023-09-19T03:57:35;8.90;;;2.67;;
14754;SDS011;7469;50.906;6.952;2023-09-19T04:00:04;12.30;;;3.07;;
14754;SDS011;7469;50.906;6.952;2023-09-19T04:02:39;9.80;;;2.93;;
14754;SDS011;7469;50.906;6.952;2023-09-19T04:05:08;7.93;;;2.87;;
14754;SDS011;7469;50.906;6.952;2023-09-19T04:07:37;10.17;;;2.90;;
14754;SDS011;7469;50.906;6.952;2023-09-19T04:10:05;10.67;;;2.60;;
14754;SDS011;7469;50.906;6.952;2023-09-19T04:12:35;9.03;;;2.53;;
14754;SDS011;7469;50.906;6.952;2023-09-19T04:15:03;8.80;;;2.20;;
14754;SDS011;7469;50.906;6.952;2023-09-19T04:17:31;12.87;;;2.57;;
14754;SDS011;7469;50.906;6.952;2023-09-19T04:20:03;6.50;;;2.33;;
14754;SDS011;7469;50.906;6.952;2023-09-19T04:22:33;6.97;;;2.13;;
14754;SDS011;7469;50.906;6.952;2023-09-19T04:25:04;9.03;;;2.60;;
14754;SDS011;7469;50.906;6.952;2023-09-19T04:27:34;13.73;;;2.80;;
14754;SDS011;7469;50.906;6.952;2023-09-19T04:30:02;11.20;;;3.00;;
14754;SDS011;7469;50.906;6.952;2023-09-19T04:32:36;10.77;;;2.67;;
14754;SDS011;7469;50.906;6.952;2023-09-19T04:35:07;9.13;;;2.60;;
14754;SDS011;7469;50.906;6.952;2023-09-19T04:37:37;9.33;;;2.63;;
14754;SDS011;7469;50.906;6.952;2023-09-19T04:40:06;9.90;;;2.97;;
14754;SDS011;7469;50.906;6.952;2023-09-19T04:42:39;8.70;;;2.73;;
14754;SDS011;7469;50.906;6.952;2023-09-19T04:45:08;9.07;;;2.73;;
14754;SDS011;7469;50.906;6.952;2023-09-19T04:47:37;8.60;;;2.30;;
14754;SDS011;7469;50.906;6.952;2023-09-19T04:50:08;12.13;;;2.77;;
14754;SDS011;7469;50.906;6.952;2023-09-19T04:52:40;7.30;;;2.47;;
14754;SDS011;7469;50.906;6.952;2023-09-19T04:55:11;14.67;;;2.93;;
14754;SDS011;7469;50.906;6.952;2023-09-19T04:57:43;9.67;;;2.43;;
14754;SDS011;7469;50.906;6.952;2023-09-19T05:00:12;15.50;;;3.27;;
14754;SDS011;7469;50.906;6.952;2023-09-19T05:02:43;10.40;;;2.70;;
14754;SDS011;7469;50.906;6.952;2023-09-19T05:05:13;13.23;;;2.90;;
14754;SDS011;7469;50.906;6.952;2023-09-19T05:07:43;10.67;;;2.90;;
14754;SDS011;7469;50.906;6.952;2023-09-19T05:10:11;8.47;;;2.57;;
14754;SDS011;7469;50.906;6.952;2023-09-19T05:12:40;8.33;;;2.87;;
14754;SDS011;7469;50.906;6.952;2023-09-19T05:15:10;9.33;;;3.00;;
14754;SDS011;7469;50.906;6.952;2023-09-19T05:17:38;11.27;;;2.83;;
14754;SDS011;7469;50.906;6.952;2023-09-19T05:20:08;11.17;;;3.03;;
14754;SDS011;7469;50.906;6.952;2023-09-19T05:22:41;8.23;;;2.60;;
14754;SDS011;7469;50.906;6.952;2023-09-19T05:25:09;7.87;;;2.80;;
14754;SDS011;7469;50.906;6.952;2023-09-19T05:27:42;9.73;;;3.03;;
14754;SDS011;7469;50.906;6.952;2023-09-19T05:30:10;9.67;;;2.40;;
14754;SDS011;7469;50.906;6.952;2023-09-19T05:32:40;9.60;;;2.80;;
14754;SDS011;7469;50.906;6.952;2023-09-19T05:35:09;7.97;;;2.63;;
14754;SDS011;7469;50.906;6.952;2023-09-19T05:37:40;10.53;;;2.70;;
14754;SDS011;7469;50.906;6.952;2023-09-19T05:40:09;14.83;;;3.13;;
14754;SDS011;7469;50.906;6.952;2023-09-19T05:42:38;13.87;;;2.87;;
14754;SDS011;7469;50.906;6.952;2023-09-19T05:45:08;8.43;;;2.60;;
14754;SDS011;7469;50.906;6.952;2023-09-19T05:47:38;8.43;;;2.60;;
14754;SDS011;7469;50.906;6.952;2023-09-19T05:50:09;11.70;;;2.50;;
14754;SDS011;7469;50.906;6.952;2023-09-19T05:52:37;11.00;;;2.43;;
14754;SDS011;7469;50.906;6.952;2023-09-19T05:55:08;9.47;;;2.80;;
14754;SDS011;7469;50.906;6.952;2023-09-19T05:57:37;12.73;;;2.97;;
14754;SDS011;7469;50.906;6.952;2023-09-19T06:00:06;9.83;;;2.87;;
14754;SDS011;7469;50.906;6.952;2023-09-19T06:02:37;8.73;;;2.43;;
14754;SDS011;7469;50.906;6.952;2023-09-19T06:05:07;9.83;;;2.60;;
14754;SDS011;7469;50.906;6.952;2023-09-19T06:07:36;10.50;;;2.70;;
14754;SDS011;7469;50.906;6.952;2023-09-19T06:10:05;7.87;;;2.57;;
14754;SDS011;7469;50.906;6.952;2023-09-19T06:12:38;12.33;;;2.77;;
14754;SDS011;7469;50.906;6.952;2023-09-19T06:15:07;7.10;;;2.47;;
14754;SDS011;7469;50.906;6.952;2023-09-19T06:17:39;10.67;;;2.47;;
14754;SDS011;7469;50.906;6.952;2023-09-19T06:20:07;11.20;;;2.63;;
14754;SDS011;7469;50.906;6.952;2023-09-19T06:22:39;7.93;;;2.53;;
14754;SDS011;7469;50.906;6.952;2023-09-19T06:25:08;8.63;;;2.57;;
14754;SDS011;7469;50.906;6.952;2023-09-19T06:27:39;12.07;;;2.50;;
14754;SDS011;7469;50.906;6.952;2023-09-19T06:30:09;9.77;;;2.60;;
14754;SDS011;7469;50.906;6.952;2023-09-19T06:32:39;10.37;;;2.70;;
14754;SDS011;7469;50.906;6.952;2023-09-19T06:35:10;11.70;;;2.67;;
14754;SDS011;7469;50.906;6.952;2023-09-19T06:37:38;7.43;;;2.33;;
14754;SDS011;7469;50.906;6.952;2023-09-19T06:40:08;7.70;;;2.77;;
14754;SDS011;7469;50.906;6.952;2023-09-19T06:42:41;5.90;;;2.57;;
14754;SDS011;7469;50.906;6.952;2023-09-19T06:45:10;9.03;;;2.60;;
14754;SDS011;7469;50.906;6.952;2023-09-19T06:47:44;10.43;;;2.60;;
14754;SDS011;7469;50.906;6.952;2023-09-19T06:50:12;10.33;;;2.30;;
14754;SDS011;7469;50.906;6.952;2023-09-19T06:52:40;7.17;;;2.70;;
14754;SDS011;7469;50.906;6.952;2023-09-19T06:55:09;9.53;;;2.53;;
14754;SDS011;7469;50.906;6.952;2023-09-19T06:57:39;11.33;;;2.67;;
14754;SDS011;7469;50.906;6.952;2023-09-19T07:00:10;7.77;;;2.33;;
14754;SDS011;7469;50.906;6.952;2023-09-19T07:02:44;14.63;;;3.20;;
14754;SDS011;7469;50.906;6.952;2023-09-19T07:05:13;14.33;;;2.77;;
14754;SDS011;7469;50.906;6.952;2023-09-19T07:07:42;7.77;;;2.33;;
14754;SDS011;7469;50.906;6.952;2023-09-19T07:10:11;10.57;;;2.53;;
14754;SDS011;7469;50.906;6.952;2023-09-19T07:12:41;10.03;;;2.90;;
14754;SDS011;7469;50.906;6.952;2023-09-19T07:15:10;10.67;;;2.97;;
14754;SDS011;7469;50.906;6.952;2023-09-19T07:17:37;9.50;;;2.73;;
14754;SDS011;7469;50.906;6.952;2023-09-19T07:20:06;10.70;;;2.90;;
14754;SDS011;7469;50.906;6.952;2023-09-19T07:22:34;10.60;;;2.83;;
14754;SDS011;7469;50.906;6.952;2023-09-19T07:25:06;10.00;;;2.50;;
14754;SDS011;7469;50.906;6.952;2023-09-19T07:27:34;10.77;;;2.70;;
14754;SDS011;7469;50.906;6.952;2023-09-19T07:30:04;9.73;;;2.60;;
14754;SDS011;7469;50.906;6.952;2023-09-19T07:32:34;12.53;;;2.67;;
14754;SDS011;7469;50.906;6.952;2023-09-19T07:35:04;10.13;;;2.40;;
14754;SDS011;7469;50.906;6.952;2023-09-19T07:37:35;6.77;;;2.00;;
14754;SDS011;7469;50.906;6.952;2023-09-19T07:40:03;9.07;;;2.40;;
14754;SDS011;7469;50.906;6.952;2023-09-19T07:42:33;10.03;;;2.93;;
14754;SDS011;7469;50.906;6.952;2023-09-19T07:45:05;9.07;;;2.47;;
14754;SDS011;7469;50.906;6.952;2023-09-19T07:47:33;8.90;;;2.47;;
14754;SDS011;7469;50.906;6.952;2023-09-19T07:50:03;7.60;;;2.60;;
14754;SDS011;7469;50.906;6.952;2023-09-19T07:52:33;10.03;;;2.80;;
14754;SDS011;7469;50.906;6.952;2023-09-19T07:55:01;11.80;;;3.17;;
14754;SDS011;7469;50.906;6.952;2023-09-19T07:57:35;10.53;;;2.70;;
14754;SDS011;7469;50.906;6.952;2023-09-19T08:00:05;12.67;;;2.80;;
14754;SDS011;7469;50.906;6.952;2023-09-19T08:02:34;9.20;;;2.57;;
14754;SDS011;7469;50.906;6.952;2023-09-19T08:05:04;8.87;;;2.73;;
14754;SDS011;7469;50.906;6.952;2023-09-19T08:07:36;10.67;;;2.50;;
14754;SDS011;7469;50.906;6.952;2023-09-19T08:10:05;7.80;;;2.60;;
14754;SDS011;7469;50.906;6.952;2023-09-19T08:12:39;9.93;;;2.83;;
14754;SDS011;7469;50.906;6.952;2023-09-19T08:15:14;13.57;;;3.07;;
14754;SDS011;7469;50.906;6.952;2023-09-19T08:17:42;8.57;;;3.07;;
14754;SDS011;7469;50.906;6.952;2023-09-19T08:20:11;10.03;;;3.07;;
14754;SDS011;7469;50.906;6.952;2023-09-19T08:22:43;8.57;;;2.70;;
14754;SDS011;7469;50.906;6.952;2023-09-19T08:25:14;8.20;;;2.73;;
14754;SDS011;7469;50.906;6.952;2023-09-19T08:27:44;10.67;;;2.60;;
14754;SDS011;7469;50.906;6.952;2023-09-19T08:30:16;9.67;;;2.50;;
14754;SDS011;7469;50.906;6.952;2023-09-19T08:32:46;7.50;;;2.70;;
14754;SDS011;7469;50.906;6.952;2023-09-19T08:35:14;10.47;;;3.37;;
14754;SDS011;7469;50.906;6.952;2023-09-19T08:37:42;9.70;;;2.97;;
14754;SDS011;7469;50.906;6.952;2023-09-19T08:40:11;9.47;;;2.67;;
14754;SDS011;7469;50.906;6.952;2023-09-19T08:42:49;10.00;;;3.10;;
14754;SDS011;7469;50.906;6.952;2023-09-19T08:45:19;12.40;;;2.90;;
14754;SDS011;7469;50.906;6.952;2023-09-19T08:47:50;6.20;;;2.47;;
14754;SDS011;7469;50.906;6.952;2023-09-19T08:50:28;7.90;;;2.20;;
14754;SDS011;7469;50.906;6.952;2023-09-19T08:52:59;9.33;;;2.47;;
14754;SDS011;7469;50.906;6.952;2023-09-19T08:55:30;6.13;;;2.20;;
14754;SDS011;7469;50.906;6.952;2023-09-19T08:58:00;7.80;;;2.43;;
14754;SDS011;7469;50.906;6.952;2023-09-19T09:00:32;11.57;;;3.20;;
14754;SDS011;7469;50.906;6.952;2023-09-19T09:03:02;11.23;;;2.70;;
14754;SDS011;7469;50.906;6.952;2023-09-19T09:05:33;13.73;;;3.00;;
14754;SDS011;7469;50.906;6.952;2023-09-19T09:08:07;7.60;;;3.07;;
14754;SDS011;7469;50.906;6.952;2023-09-19T09:10:37;7.17;;;2.40;;
14754;SDS011;7469;50.906;6.952;2023-09-19T09:13:06;8.83;;;2.73;;
14754;SDS011;7469;50.906;6.952;2023-09-19T09:15:36;7.70;;;2.17;;
14754;SDS011;7469;50.906;6.952;2023-09-19T09:18:05;9.30;;;3.10;;
14754;SDS011;7469;50.906;6.952;2023-09-19T09:20:33;11.40;;;2.90;;
14754;SDS011;7469;50.906;6.952;2023-09-19T09:23:02;6.43;;;2.47;;
14754;SDS011;7469;50.906;6.952;2023-09-19T09:25:46;8.70;;;2.50;;
14754;SDS011;7469;50.906;6.952;2023-09-19T09:28:18;5.63;;;2.37;;
14754;SDS011;7469;50.906;6.952;2023-09-19T09:30:48;9.90;;;2.37;;
14754;SDS011;7469;50.906;6.952;2023-09-19T09:33:17;6.40;;;1.90;;
14754;SDS011;7469;50.906;6.952;2023-09-19T09:35:49;6.57;;;2.43;;
14754;SDS011;7469;50.906;6.952;2023-09-19T09:38:19;4.70;;;2.17;;
14754;SDS011;7469;50.906;6.952;2023-09-19T09:40:52;10.70;;;2.50;;
14754;SDS011;7469;50.906;6.952;2023-09-19T09:43:27;9.60;;;2.60;;
14754;SDS011;7469;50.906;6.952;2023-09-19T09:46:11;6.83;;;2.43;;
14754;SDS011;7469;50.906;6.952;2023-09-19T09:48:59;5.37;;;2.00;;
14754;SDS011;7469;50.906;6.952;2023-09-19T09:51:59;6.80;;;2.30;;
14754;SDS011;7469;50.906;6.952;2023-09-19T09:54:35;7.37;;;2.13;;
14754;SDS011;7469;50.906;6.952;2023-09-19T09:57:06;8.80;;;2.40;;
14754;SDS011;7469;50.906;6.952;2023-09-19T09:59:49;6.17;;;2.30;;
14754;SDS011;7469;50.906;6.952;2023-09-19T10:02:21;6.67;;;2.10;;
14754;SDS011;7469;50.906;6.952;2023-09-19T10:04:56;5.43;;;2.17;;
14754;SDS011;7469;50.906;6.952;2023-09-19T10:07:36;5.33;;;2.40;;
14754;SDS011;7469;50.906;6.952;2023-09-19T10:10:10;6.60;;;2.00;;
14754;SDS011;7469;50.906;6.952;2023-09-19T10:12:43;6.47;;;2.10;;
14754;SDS011;7469;50.906;6.952;2023-09-19T10:15:15;4.73;;;2.13;;
14754;SDS011;7469;50.906;6.952;2023-09-19T10:17:48;7.13;;;2.20;;
14754;SDS011;7469;50.906;6.952;2023-09-19T10:20:16;7.90;;;2.07;;
14754;SDS011;7469;50.906;6.952;2023-09-19T10:22:53;5.63;;;2.00;;
14754;SDS011;7469;50.906;6.952;2023-09-19T10:25:25;4.00;;;1.83;;
14754;SDS011;7469;50.906;6.952;2023-09-19T10:27:55;9.53;;;2.00;;
14754;SDS011;7469;50.906;6.952;2023-09-19T10:30:25;9.60;;;2.40;;
14754;SDS011;7469;50.906;6.952;2023-09-19T10:32:59;4.57;;;2.07;;
14754;SDS011;7469;50.906;6.952;2023-09-19T10:35:28;5.07;;;2.13;;
14754;SDS011;7469;50.906;6.952;2023-09-19T10:37:57;6.77;;;2.20;;
14754;SDS011;7469;50.906;6.952;2023-09-19T10:40:29;5.60;;;1.70;;
14754;SDS011;7469;50.906;6.952;2023-09-19T10:43:03;4.10;;;1.80;;
14754;SDS011;7469;50.906;6.952;2023-09-19T10:45:33;7.87;;;2.07;;
14754;SDS011;7469;50.906;6.952;2023-09-19T10:48:03;4.87;;;1.80;;
14754;SDS011;7469;50.906;6.952;2023-09-19T10:50:33;7.03;;;2.13;;
14754;SDS011;7469;50.906;6.952;2023-09-19T10:53:11;5.37;;;1.80;;
14754;SDS011;7469;50.906;6.952;2023-09-19T10:55:41;5.37;;;2.00;;
14754;SDS011;7469;50.906;6.952;2023-09-19T10:58:24;5.37;;;2.17;;
14754;SDS011;7469;50.906;6.952;2023-09-19T11:00:55;5.73;;;2.13;;
14754;SDS011;7469;50.906;6.952;2023-09-19T11:03:29;7.03;;;2.23;;
14754;SDS011;7469;50.906;6.952;2023-09-19T11:06:02;6.50;;;2.37;;
14754;SDS011;7469;50.906;6.952;2023-09-19T11:08:52;5.63;;;2.17;;
14754;SDS011;7469;50.906;6.952;2023-09-19T11:11:40;6.27;;;2.17;;
14754;SDS011;7469;50.906;6.952;2023-09-19T11:14:29;4.60;;;2.13;;
14754;SDS011;7469;50.906;6.952;2023-09-19T11:20:24;7.40;;;2.20;;
14754;SDS011;7469;50.906;6.952;2023-09-19T11:23:19;3.27;;;2.20;;
14754;SDS011;7469;50.906;6.952;2023-09-19T11:25:50;6.00;;;2.13;;
14754;SDS011;7469;50.906;6.952;2023-09-19T11:28:33;3.50;;;1.90;;
14754;SDS011;7469;50.906;6.952;2023-09-19T11:34:38;4.63;;;1.80;;
14754;SDS011;7469;50.906;6.952;2023-09-19T11:40:39;6.83;;;2.10;;
14754;SDS011;7469;50.906;6.952;2023-09-19T11:43:30;4.10;;;1.70;;
14754;SDS011;7469;50.906;6.952;2023-09-19T11:46:02;7.20;;;1.93;;
14754;SDS011;7469;50.906;6.952;2023-09-19T11:48:31;4.73;;;1.90;;
14754;SDS011;7469;50.906;6.952;2023-09-19T11:51:01;7.93;;;2.40;;
14754;SDS011;7469;50.906;6.952;2023-09-19T11:53:49;6.10;;;2.20;;
14754;SDS011;7469;50.906;6.952;2023-09-19T11:56:20;5.33;;;2.10;;
14754;SDS011;7469;50.906;6.952;2023-09-19T11:58:50;5.10;;;2.40;;
14754;SDS011;7469;50.906;6.952;2023-09-19T12:01:22;4.80;;;2.20;;
14754;SDS011;7469;50.906;6.952;2023-09-19T12:03:52;7.77;;;2.20;;
14754;SDS011;7469;50.906;6.952;2023-09-19T12:06:23;6.80;;;2.40;;
14754;SDS011;7469;50.906;6.952;2023-09-19T12:08:53;3.47;;;1.90;;
14754;SDS011;7469;50.906;6.952;2023-09-19T12:11:26;4.70;;;1.87;;
14754;SDS011;7469;50.906;6.952;2023-09-19T12:13:57;5.07;;;2.07;;
14754;SDS011;7469;50.906;6.952;2023-09-19T12:16:27;4.57;;;1.90;;
14754;SDS011;7469;50.906;6.952;2023-09-19T12:18:57;5.60;;;2.50;;
14754;SDS011;7469;50.906;6.952;2023-09-19T12:21:26;7.07;;;2.10;;
14754;SDS011;7469;50.906;6.952;2023-09-19T12:23:58;3.40;;;1.80;;
14754;SDS011;7469;50.906;6.952;2023-09-19T12:26:41;6.40;;;2.37;;
14754;SDS011;7469;50.906;6.952;2023-09-19T12:29:15;5.33;;;2.00;;
14754;SDS011;7469;50.906;6.952;2023-09-19T12:31:50;5.50;;;1.87;;
14754;SDS011;7469;50.906;6.952;2023-09-19T12:34:21;5.63;;;2.23;;
14754;SDS011;7469;50.906;6.952;2023-09-19T12:37:06;4.60;;;2.00;;
14754;SDS011;7469;50.906;6.952;2023-09-19T12:39:47;5.10;;;1.90;;
14754;SDS011;7469;50.906;6.952;2023-09-19T12:42:19;6.07;;;2.20;;
14754;SDS011;7469;50.906;6.952;2023-09-19T12:44:49;5.87;;;1.90;;
14754;SDS011;7469;50.906;6.952;2023-09-19T12:47:21;3.97;;;1.80;;
14754;SDS011;7469;50.906;6.952;2023-09-19T12:50:04;4.07;;;1.67;;
14754;SDS011;7469;50.906;6.952;2023-09-19T12:52:36;3.87;;;2.00;;
14754;SDS011;7469;50.906;6.952;2023-09-19T12:55:04;4.03;;;1.70;;
14754;SDS011;7469;50.906;6.952;2023-09-19T12:57:34;3.67;;;1.73;;
14754;SDS011;7469;50.906;6.952;2023-09-19T13:00:03;4.63;;;1.77;;
14754;SDS011;7469;50.906;6.952;2023-09-19T13:02:33;4.30;;;1.77;;
14754;SDS011;7469;50.906;6.952;2023-09-19T13:05:02;4.27;;;1.70;;
14754;SDS011;7469;50.906;6.952;2023-09-19T13:07:39;3.73;;;1.60;;
14754;SDS011;7469;50.906;6.952;2023-09-19T13:10:10;5.93;;;1.73;;
14754;SDS011;7469;50.906;6.952;2023-09-19T13:12:43;2.70;;;1.50;;
14754;SDS011;7469;50.906;6.952;2023-09-19T13:15:13;3.00;;;1.30;;
14754;SDS011;7469;50.906;6.952;2023-09-19T13:17:46;2.33;;;1.27;;
14754;SDS011;7469;50.906;6.952;2023-09-19T13:20:21;4.00;;;1.53;;
14754;SDS011;7469;50.906;6.952;2023-09-19T13:22:55;5.30;;;1.70;;
14754;SDS011;7469;50.906;6.952;2023-09-19T13:25:26;5.67;;;1.67;;
14754;SDS011;7469;50.906;6.952;2023-09-19T13:27:57;4.67;;;1.63;;
14754;SDS011;7469;50.906;6.952;2023-09-19T13:30:27;5.03;;;1.67;;
14754;SDS011;7469;50.906;6.952;2023-09-19T13:33:04;5.60;;;1.63;;
14754;SDS011;7469;50.906;6.952;2023-09-19T13:35:33;7.57;;;1.93;;
14754;SDS011;7469;50.906;6.952;2023-09-19T13:38:03;3.20;;;1.33;;
14754;SDS011;7469;50.906;6.952;2023-09-19T13:40:33;4.57;;;1.73;;
14754;SDS011;7469;50.906;6.952;2023-09-19T13:43:03;2.43;;;1.50;;
14754;SDS011;7469;50.906;6.952;2023-09-19T13:45:33;3.67;;;1.63;;
14754;SDS011;7469;50.906;6.952;2023-09-19T13:48:01;5.33;;;1.50;;
14754;SDS011;7469;50.906;6.952;2023-09-19T13:50:29;4.57;;;1.30;;
14754;SDS011;7469;50.906;6.952;2023-09-19T13:52:57;4.00;;;1.63;;
14754;SDS011;7469;50.906;6.952;2023-09-19T13:55:26;3.40;;;1.77;;
14754;SDS011;7469;50.906;6.952;2023-09-19T13:57:54;1.93;;;1.20;;
14754;SDS011;7469;50.906;6.952;2023-09-19T14:00:25;5.50;;;1.80;;
14754;SDS011;7469;50.906;6.952;2023-09-19T14:02:53;5.17;;;1.63;;
14754;SDS011;7469;50.906;6.952;2023-09-19T14:05:22;3.57;;;1.27;;
14754;SDS011;7469;50.906;6.952;2023-09-19T14:07:54;6.37;;;1.67;;
14754;SDS011;7469;50.906;6.952;2023-09-19T14:10:25;4.37;;;1.33;;
14754;SDS011;7469;50.906;6.952;2023-09-19T14:12:53;2.93;;;1.30;;
14754;SDS011;7469;50.906;6.952;2023-09-19T14:15:21;5.07;;;1.43;;
14754;SDS011;7469;50.906;6.952;2023-09-19T14:17:57;4.50;;;1.53;;
14754;SDS011;7469;50.906;6.952;2023-09-19T14:20:27;3.77;;;1.30;;
14754;SDS011;7469;50.906;6.952;2023-09-19T14:22:55;2.97;;;1.30;;
14754;SDS011;7469;50.906;6.952;2023-09-19T14:25:25;3.73;;;1.57;;
14754;SDS011;7469;50.906;6.952;2023-09-19T14:27:53;3.50;;;1.23;;
14754;SDS011;7469;50.906;6.952;2023-09-19T14:30:20;3.00;;;1.33;;
14754;SDS011;7469;50.906;6.952;2023-09-19T14:32:49;4.40;;;1.63;;
14754;SDS011;7469;50.906;6.952;2023-09-19T14:35:19;6.33;;;1.40;;
14754;SDS011;7469;50.906;6.952;2023-09-19T14:37:49;5.77;;;1.57;;
14754;SDS011;7469;50.906;6.952;2023-09-19T14:40:17;11.97;;;1.83;;
14754;SDS011;7469;50.906;6.952;2023-09-19T14:42:46;2.87;;;1.20;;
14754;SDS011;7469;50.906;6.952;2023-09-19T14:45:18;6.70;;;1.53;;
14754;SDS011;7469;50.906;6.952;2023-09-19T14:47:46;7.43;;;1.53;;
14754;SDS011;7469;50.906;6.952;2023-09-19T14:50:14;5.57;;;1.93;;
14754;SDS011;7469;50.906;6.952;2023-09-19T14:52:44;4.53;;;1.40;;
14754;SDS011;7469;50.906;6.952;2023-09-19T14:55:12;2.93;;;1.30;;
14754;SDS011;7469;50.906;6.952;2023-09-19T14:57:41;3.27;;;1.30;;
14754;SDS011;7469;50.906;6.952;2023-09-19T15:00:11;2.27;;;1.10;;
14754;SDS011;7469;50.906;6.952;2023-09-19T15:02:40;4.20;;;1.67;;
14754;SDS011;7469;50.906;6.952;2023-09-19T15:05:09;6.67;;;1.37;;
14754;SDS011;7469;50.906;6.952;2023-09-19T15:07:38;2.00;;;0.97;;
14754;SDS011;7469;50.906;6.952;2023-09-19T15:10:08;3.77;;;1.20;;
14754;SDS011;7469;50.906;6.952;2023-09-19T15:12:36;3.10;;;1.07;;
14754;SDS011;7469;50.906;6.952;2023-09-19T15:15:06;4.23;;;1.30;;
14754;SDS011;7469;50.906;6.952;2023-09-19T15:17:35;3.43;;;1.23;;
14754;SDS011;7469;50.906;6.952;2023-09-19T15:20:04;2.20;;;1.00;;
14754;SDS011;7469;50.906;6.952;2023-09-19T15:22:33;2.33;;;1.40;;
14754;SDS011;7469;50.906;6.952;2023-09-19T15:25:02;7.73;;;1.40;;
14754;SDS011;7469;50.906;6.952;2023-09-19T15:27:33;3.20;;;1.33;;
14754;SDS011;7469;50.906;6.952;2023-09-19T15:30:03;3.40;;;1.07;;
14754;SDS011;7469;50.906;6.952;2023-09-19T15:32:32;3.17;;;1.40;;